EZY21YK EGKK-EKCH
Flight info
| Callsign | EZY21YK |
|---|---|
| Flight time | 1h 15m |
| Altitude | 37000 |
| Route | FRANE M604 PAAVO Q295 SOMVA DCT MAVAS DCT DOSUR DCT TALSA P729 TUDLO |
| Aircraft | A320/M-SDE3FGHIRWY/LB1 |
Departure
| Time | 2026-05-04 19:43 |
|---|---|
| Airport | London Gatwick Airport (EGKK) |
Arrival
| Time | 2026-05-04 20:58 |
|---|---|
| Airport | Copenhagen Kastrup Airport (EKCH) |
| Time | Latitude | Longitude | Altitude | Speed | Heading |
|---|---|---|---|---|---|
| 2026-05-04 18:53 | 51.15397 | -0.18016 | 204 ft | 0 kts | 168° |
| 2026-05-04 19:23 | 51.15402 | -0.18018 | 204 ft | 4 kts | 168° |
| 2026-05-04 19:23 | 51.15428 | -0.18027 | 212 ft | 4 kts | 168° |
| 2026-05-04 19:23 | 51.15449 | -0.18034 | 210 ft | 4 kts | 181° |
| 2026-05-04 19:23 | 51.15467 | -0.18020 | 216 ft | 4 kts | 252° |
| 2026-05-04 19:24 | 51.15473 | -0.17985 | 214 ft | 1 kts | 257° |
| 2026-05-04 19:24 | 51.15473 | -0.17984 | 214 ft | 0 kts | 257° |
| 2026-05-04 19:34 | 51.15471 | -0.17994 | 214 ft | 2 kts | 257° |
| 2026-05-04 19:34 | 51.15469 | -0.18011 | 216 ft | 1 kts | 257° |
| 2026-05-04 19:34 | 51.15466 | -0.18030 | 216 ft | 5 kts | 257° |
| 2026-05-04 19:34 | 51.15459 | -0.18084 | 215 ft | 7 kts | 257° |
| 2026-05-04 19:35 | 51.15448 | -0.18164 | 212 ft | 7 kts | 257° |
| 2026-05-04 19:35 | 51.15442 | -0.18209 | 209 ft | 4 kts | 257° |
| 2026-05-04 19:36 | 51.15268 | -0.18236 | 210 ft | 11 kts | 167° |
| 2026-05-04 19:36 | 51.15200 | -0.18246 | 209 ft | 9 kts | 222° |
| 2026-05-04 19:36 | 51.15184 | -0.18341 | 207 ft | 12 kts | 259° |
| 2026-05-04 19:36 | 51.15157 | -0.18536 | 208 ft | 18 kts | 257° |
| 2026-05-04 19:37 | 51.15129 | -0.18739 | 215 ft | 21 kts | 258° |
| 2026-05-04 19:37 | 51.15097 | -0.18972 | 210 ft | 22 kts | 257° |
| 2026-05-04 19:37 | 51.15064 | -0.19214 | 204 ft | 23 kts | 258° |
| 2026-05-04 19:37 | 51.15029 | -0.19469 | 204 ft | 24 kts | 257° |
| 2026-05-04 19:38 | 51.14992 | -0.19738 | 204 ft | 26 kts | 258° |
| 2026-05-04 19:38 | 51.14954 | -0.20026 | 210 ft | 27 kts | 258° |
| 2026-05-04 19:38 | 51.14910 | -0.20329 | 208 ft | 29 kts | 256° |
| 2026-05-04 19:38 | 51.14866 | -0.20648 | 208 ft | 30 kts | 258° |
| 2026-05-04 19:39 | 51.14826 | -0.20942 | 215 ft | 21 kts | 257° |
| 2026-05-04 19:39 | 51.14801 | -0.21121 | 204 ft | 13 kts | 256° |
| 2026-05-04 19:39 | 51.14780 | -0.21215 | 208 ft | 8 kts | 255° |
| 2026-05-04 19:39 | 51.14768 | -0.21292 | 208 ft | 7 kts | 257° |
| 2026-05-04 19:40 | 51.14758 | -0.21358 | 204 ft | 6 kts | 252° |
| 2026-05-04 19:40 | 51.14736 | -0.21397 | 207 ft | 4 kts | 210° |
| 2026-05-04 19:40 | 51.14718 | -0.21403 | 206 ft | 2 kts | 185° |
| 2026-05-04 19:40 | 51.14709 | -0.21402 | 204 ft | 2 kts | 175° |
| 2026-05-04 19:41 | 51.14672 | -0.21378 | 206 ft | 6 kts | 142° |
| 2026-05-04 19:41 | 51.14641 | -0.21343 | 206 ft | 5 kts | 153° |
| 2026-05-04 19:41 | 51.14598 | -0.21320 | 210 ft | 9 kts | 164° |
| 2026-05-04 19:41 | 51.14543 | -0.21276 | 207 ft | 9 kts | 138° |
| 2026-05-04 19:42 | 51.14517 | -0.21201 | 206 ft | 6 kts | 104° |
| 2026-05-04 19:42 | 51.14522 | -0.21144 | 203 ft | 11 kts | 77° |
| 2026-05-04 19:42 | 51.14585 | -0.20696 | 211 ft | 77 kts | 77° |
| 2026-05-04 19:42 | 51.14743 | -0.19551 | 214 ft | 135 kts | 77° |
| 2026-05-04 19:43 | 51.14980 | -0.17830 | 372 ft | 167 kts | 77° |
| 2026-05-04 19:43 | 51.15229 | -0.16032 | 1124 ft | 164 kts | 77° |
| 2026-05-04 19:43 | 51.15477 | -0.14203 | 1633 ft | 181 kts | 76° |
| 2026-05-04 19:43 | 51.15760 | -0.12146 | 2025 ft | 202 kts | 76° |
| 2026-05-04 19:44 | 51.16076 | -0.09824 | 2460 ft | 225 kts | 77° |
| 2026-05-04 19:44 | 51.16423 | -0.07268 | 3016 ft | 245 kts | 77° |
| 2026-05-04 19:44 | 51.16783 | -0.04580 | 3867 ft | 252 kts | 78° |
| 2026-05-04 19:44 | 51.16839 | -0.01751 | 4713 ft | 260 kts | 94° |
| 2026-05-04 19:45 | 51.16703 | 0.01149 | 5566 ft | 265 kts | 91° |
| 2026-05-04 19:45 | 51.16650 | 0.04116 | 6439 ft | 271 kts | 90° |
| 2026-05-04 19:45 | 51.16739 | 0.07143 | 7253 ft | 276 kts | 77° |
| 2026-05-04 19:45 | 51.17492 | 0.09964 | 8092 ft | 280 kts | 58° |
| 2026-05-04 19:46 | 51.18538 | 0.12601 | 8958 ft | 284 kts | 58° |
| 2026-05-04 19:46 | 51.19617 | 0.15285 | 9745 ft | 293 kts | 58° |
| 2026-05-04 19:46 | 51.20762 | 0.18126 | 10046 ft | 317 kts | 58° |
| 2026-05-04 19:46 | 51.22002 | 0.21206 | 10302 ft | 341 kts | 58° |
| 2026-05-04 19:47 | 51.23324 | 0.24495 | 10496 ft | 364 kts | 58° |
| 2026-05-04 19:47 | 51.24730 | 0.28008 | 10637 ft | 386 kts | 58° |
| 2026-05-04 19:47 | 51.26157 | 0.31582 | 11091 ft | 396 kts | 58° |
| 2026-05-04 19:47 | 51.27639 | 0.35304 | 11764 ft | 400 kts | 58° |
| 2026-05-04 19:48 | 51.29131 | 0.39060 | 12483 ft | 402 kts | 58° |
| 2026-05-04 19:48 | 51.30638 | 0.42853 | 13194 ft | 405 kts | 58° |
| 2026-05-04 19:48 | 51.32149 | 0.46665 | 13901 ft | 407 kts | 58° |
| 2026-05-04 19:48 | 51.33666 | 0.50500 | 14485 ft | 411 kts | 58° |
| 2026-05-04 19:49 | 51.35225 | 0.54375 | 14979 ft | 417 kts | 55° |
| 2026-05-04 19:49 | 51.37097 | 0.57941 | 15462 ft | 422 kts | 45° |
| 2026-05-04 19:49 | 51.39354 | 0.60999 | 15963 ft | 427 kts | 36° |
| 2026-05-04 19:49 | 51.41899 | 0.63386 | 16448 ft | 432 kts | 25° |
| 2026-05-04 19:50 | 51.44757 | 0.65097 | 16926 ft | 436 kts | 15° |
| 2026-05-04 19:50 | 51.47718 | 0.66235 | 17415 ft | 440 kts | 13° |
| 2026-05-04 19:50 | 51.50672 | 0.67353 | 17850 ft | 444 kts | 13° |
| 2026-05-04 19:50 | 51.53695 | 0.68504 | 18299 ft | 448 kts | 13° |
| 2026-05-04 19:51 | 51.56744 | 0.69670 | 18687 ft | 452 kts | 13° |
| 2026-05-04 19:51 | 51.59799 | 0.70841 | 19070 ft | 454 kts | 13° |
| 2026-05-04 19:51 | 51.62895 | 0.72025 | 19457 ft | 457 kts | 13° |
| 2026-05-04 19:51 | 51.65998 | 0.73212 | 19818 ft | 460 kts | 13° |
| 2026-05-04 19:52 | 51.69113 | 0.74403 | 20193 ft | 462 kts | 13° |
| 2026-05-04 19:52 | 51.72250 | 0.75598 | 20545 ft | 465 kts | 13° |
| 2026-05-04 19:52 | 51.75406 | 0.76798 | 20888 ft | 467 kts | 13° |
| 2026-05-04 19:52 | 51.78583 | 0.78032 | 21237 ft | 470 kts | 15° |
| 2026-05-04 19:53 | 51.81641 | 0.79902 | 21568 ft | 472 kts | 26° |
| 2026-05-04 19:53 | 51.84402 | 0.82777 | 21867 ft | 475 kts | 42° |
| 2026-05-04 19:53 | 51.86470 | 0.86919 | 22175 ft | 475 kts | 63° |
| 2026-05-04 19:53 | 51.87547 | 0.91923 | 22473 ft | 474 kts | 82° |
| 2026-05-04 19:54 | 51.87791 | 0.97252 | 22774 ft | 475 kts | 88° |
| 2026-05-04 19:54 | 51.88234 | 1.02560 | 23012 ft | 479 kts | 78° |
| 2026-05-04 19:54 | 51.89236 | 1.07744 | 23255 ft | 484 kts | 69° |
| 2026-05-04 19:54 | 51.90585 | 1.12751 | 23517 ft | 486 kts | 67° |
| 2026-05-04 19:55 | 51.91965 | 1.17731 | 23833 ft | 485 kts | 66° |
| 2026-05-04 19:55 | 51.93355 | 1.22714 | 24152 ft | 485 kts | 66° |
| 2026-05-04 19:55 | 51.94735 | 1.27687 | 24473 ft | 484 kts | 67° |
| 2026-05-04 19:55 | 51.96101 | 1.32674 | 24797 ft | 483 kts | 67° |
| 2026-05-04 19:56 | 51.97453 | 1.37668 | 25132 ft | 483 kts | 67° |
| 2026-05-04 19:56 | 51.98791 | 1.42645 | 25470 ft | 482 kts | 68° |
| 2026-05-04 19:56 | 52.00125 | 1.47627 | 25808 ft | 482 kts | 67° |
| 2026-05-04 19:56 | 52.01461 | 1.52623 | 26119 ft | 482 kts | 67° |
| 2026-05-04 19:57 | 52.02798 | 1.57614 | 26440 ft | 482 kts | 67° |
| 2026-05-04 19:57 | 52.04138 | 1.62613 | 26799 ft | 482 kts | 67° |
| 2026-05-04 19:57 | 52.05472 | 1.67600 | 27157 ft | 481 kts | 68° |
| 2026-05-04 19:57 | 52.06800 | 1.72588 | 27529 ft | 481 kts | 68° |
| 2026-05-04 19:58 | 52.08124 | 1.77578 | 27904 ft | 480 kts | 68° |
| 2026-05-04 19:58 | 52.09444 | 1.82551 | 28291 ft | 479 kts | 68° |
| 2026-05-04 19:58 | 52.10761 | 1.87524 | 28683 ft | 479 kts | 68° |
| 2026-05-04 19:58 | 52.12072 | 1.92500 | 29079 ft | 478 kts | 68° |
| 2026-05-04 19:59 | 52.13377 | 1.97466 | 29462 ft | 477 kts | 68° |
| 2026-05-04 19:59 | 52.14665 | 2.02376 | 29859 ft | 476 kts | 68° |
| 2026-05-04 19:59 | 52.15963 | 2.07326 | 30238 ft | 476 kts | 68° |
| 2026-05-04 19:59 | 52.17265 | 2.12293 | 30582 ft | 475 kts | 68° |
| 2026-05-04 20:00 | 52.18553 | 2.17228 | 30919 ft | 474 kts | 68° |
| 2026-05-04 20:00 | 52.19841 | 2.22177 | 31253 ft | 473 kts | 68° |
| 2026-05-04 20:00 | 52.21127 | 2.27120 | 31600 ft | 473 kts | 68° |
| 2026-05-04 20:00 | 52.22406 | 2.32042 | 31943 ft | 472 kts | 68° |
| 2026-05-04 20:01 | 52.23682 | 2.36964 | 32287 ft | 471 kts | 68° |
| 2026-05-04 20:01 | 52.24953 | 2.41888 | 32639 ft | 470 kts | 68° |
| 2026-05-04 20:01 | 52.26215 | 2.46790 | 32993 ft | 469 kts | 68° |
| 2026-05-04 20:01 | 52.27478 | 2.51710 | 33292 ft | 469 kts | 68° |
| 2026-05-04 20:02 | 52.28737 | 2.56628 | 33595 ft | 469 kts | 68° |
| 2026-05-04 20:02 | 52.29993 | 2.61549 | 33918 ft | 469 kts | 68° |
| 2026-05-04 20:02 | 52.30773 | 2.64816 | 34119 ft | 468 kts | 73° |
| 2026-05-04 20:02 | 52.31700 | 2.69915 | 34394 ft | 467 kts | 75° |
| 2026-05-04 20:03 | 52.32602 | 2.75016 | 34665 ft | 467 kts | 75° |
| 2026-05-04 20:03 | 52.33505 | 2.80118 | 34937 ft | 467 kts | 75° |
| 2026-05-04 20:03 | 52.34404 | 2.85222 | 35207 ft | 467 kts | 75° |
| 2026-05-04 20:03 | 52.35298 | 2.90318 | 35476 ft | 467 kts | 75° |
| 2026-05-04 20:04 | 52.36190 | 2.95431 | 35735 ft | 467 kts | 75° |
| 2026-05-04 20:04 | 52.37079 | 3.00540 | 35953 ft | 467 kts | 76° |
| 2026-05-04 20:04 | 52.37969 | 3.05669 | 36150 ft | 469 kts | 76° |
| 2026-05-04 20:04 | 52.38860 | 3.10795 | 36367 ft | 469 kts | 74° |
| 2026-05-04 20:05 | 52.40021 | 3.15801 | 36592 ft | 470 kts | 65° |
| 2026-05-04 20:05 | 52.41630 | 3.20460 | 36808 ft | 471 kts | 56° |
| 2026-05-04 20:05 | 52.43576 | 3.24785 | 36998 ft | 472 kts | 53° |
| 2026-05-04 20:06 | 52.47548 | 3.33456 | 37041 ft | 479 kts | 53° |
| 2026-05-04 20:06 | 52.51545 | 3.42247 | 37037 ft | 480 kts | 53° |
| 2026-05-04 20:07 | 52.55536 | 3.51055 | 37035 ft | 481 kts | 53° |
| 2026-05-04 20:07 | 52.59532 | 3.59900 | 37042 ft | 483 kts | 53° |
| 2026-05-04 20:08 | 52.63538 | 3.68774 | 37047 ft | 483 kts | 53° |
| 2026-05-04 20:08 | 52.67539 | 3.77670 | 37050 ft | 483 kts | 53° |
| 2026-05-04 20:09 | 52.71522 | 3.86603 | 37060 ft | 484 kts | 53° |
| 2026-05-04 20:09 | 52.75497 | 3.95553 | 37061 ft | 483 kts | 53° |
| 2026-05-04 20:10 | 52.79473 | 4.04491 | 37047 ft | 483 kts | 53° |
| 2026-05-04 20:10 | 52.83449 | 4.13453 | 37046 ft | 483 kts | 53° |
| 2026-05-04 20:11 | 52.87415 | 4.22455 | 37048 ft | 484 kts | 54° |
| 2026-05-04 20:11 | 52.91364 | 4.31475 | 37053 ft | 484 kts | 54° |
| 2026-05-04 20:12 | 52.95321 | 4.40522 | 37064 ft | 484 kts | 54° |
| 2026-05-04 20:12 | 52.99268 | 4.49561 | 37062 ft | 483 kts | 54° |
| 2026-05-04 20:13 | 53.03208 | 4.58619 | 37059 ft | 483 kts | 54° |
| 2026-05-04 20:13 | 53.07132 | 4.67672 | 37063 ft | 483 kts | 54° |
| 2026-05-04 20:14 | 53.11052 | 4.76756 | 37045 ft | 483 kts | 54° |
| 2026-05-04 20:14 | 53.14964 | 4.85844 | 37043 ft | 483 kts | 54° |
| 2026-05-04 20:15 | 53.27370 | 5.14954 | 37038 ft | 483 kts | 54° |
| 2026-05-04 20:15 | 53.42881 | 5.51752 | 37057 ft | 484 kts | 54° |
| 2026-05-04 20:16 | 53.58326 | 5.88925 | 37039 ft | 486 kts | 55° |
| 2026-05-04 20:16 | 53.73680 | 6.26505 | 37050 ft | 486 kts | 55° |
| 2026-05-04 20:17 | 53.79969 | 6.42038 | 37089 ft | 485 kts | 55° |
| 2026-05-04 20:17 | 53.83765 | 6.51441 | 37044 ft | 486 kts | 55° |
| 2026-05-04 20:18 | 53.87561 | 6.60899 | 37045 ft | 486 kts | 55° |
| 2026-05-04 20:18 | 53.91353 | 6.70392 | 37045 ft | 486 kts | 55° |
| 2026-05-04 20:19 | 53.95131 | 6.79899 | 37040 ft | 486 kts | 55° |
| 2026-05-04 20:19 | 53.98900 | 6.89428 | 37029 ft | 486 kts | 55° |
| 2026-05-04 20:20 | 54.02675 | 6.98973 | 37033 ft | 487 kts | 55° |
| 2026-05-04 20:20 | 54.06450 | 7.08556 | 37051 ft | 487 kts | 55° |
| 2026-05-04 20:21 | 54.10188 | 7.18082 | 37055 ft | 487 kts | 55° |
| 2026-05-04 20:21 | 54.15813 | 7.32502 | 37054 ft | 487 kts | 56° |
| 2026-05-04 20:22 | 54.19554 | 7.42141 | 37053 ft | 487 kts | 56° |
| 2026-05-04 20:22 | 54.23288 | 7.51798 | 37044 ft | 488 kts | 56° |
| 2026-05-04 20:23 | 54.27027 | 7.61482 | 37067 ft | 488 kts | 56° |
| 2026-05-04 20:23 | 54.30753 | 7.71188 | 37057 ft | 488 kts | 56° |
| 2026-05-04 20:24 | 54.34465 | 7.80916 | 37058 ft | 487 kts | 56° |
| 2026-05-04 20:24 | 54.38178 | 7.90649 | 37054 ft | 487 kts | 56° |
| 2026-05-04 20:25 | 54.41881 | 8.00398 | 37045 ft | 488 kts | 56° |
| 2026-05-04 20:25 | 54.45572 | 8.10165 | 37036 ft | 488 kts | 56° |
| 2026-05-04 20:26 | 54.49261 | 8.19983 | 37044 ft | 488 kts | 56° |
| 2026-05-04 20:26 | 54.52943 | 8.29810 | 37038 ft | 488 kts | 56° |
| 2026-05-04 20:27 | 54.56597 | 8.39583 | 37034 ft | 488 kts | 56° |
| 2026-05-04 20:27 | 54.60283 | 8.49497 | 37030 ft | 488 kts | 56° |
| 2026-05-04 20:28 | 54.63912 | 8.59300 | 37030 ft | 488 kts | 56° |
| 2026-05-04 20:28 | 54.67562 | 8.69187 | 37015 ft | 488 kts | 56° |
| 2026-05-04 20:29 | 54.71204 | 8.79111 | 37032 ft | 489 kts | 56° |
| 2026-05-04 20:29 | 54.74840 | 8.89048 | 37030 ft | 488 kts | 56° |
| 2026-05-04 20:30 | 54.78470 | 8.98976 | 37026 ft | 488 kts | 56° |
| 2026-05-04 20:30 | 54.82081 | 9.08946 | 37024 ft | 488 kts | 57° |
| 2026-05-04 20:31 | 54.85729 | 9.18892 | 37021 ft | 487 kts | 52° |
| 2026-05-04 20:31 | 54.90129 | 9.27811 | 37022 ft | 486 kts | 46° |
| 2026-05-04 20:32 | 54.94607 | 9.36607 | 37027 ft | 486 kts | 46° |
| 2026-05-04 20:32 | 54.99070 | 9.45437 | 37022 ft | 486 kts | 47° |
| 2026-05-04 20:33 | 55.03517 | 9.54289 | 37020 ft | 485 kts | 47° |
| 2026-05-04 20:33 | 55.07946 | 9.63162 | 37016 ft | 485 kts | 49° |
| 2026-05-04 20:34 | 55.11434 | 9.73253 | 36997 ft | 487 kts | 67° |
| 2026-05-04 20:34 | 55.12564 | 9.78813 | 36387 ft | 486 kts | 72° |
| 2026-05-04 20:34 | 55.13580 | 9.84443 | 35594 ft | 486 kts | 72° |
| 2026-05-04 20:35 | 55.14577 | 9.90075 | 34854 ft | 483 kts | 72° |
| 2026-05-04 20:35 | 55.15559 | 9.95678 | 34081 ft | 482 kts | 72° |
| 2026-05-04 20:35 | 55.16538 | 10.01281 | 33106 ft | 483 kts | 72° |
| 2026-05-04 20:35 | 55.17524 | 10.06918 | 32039 ft | 487 kts | 72° |
| 2026-05-04 20:36 | 55.18526 | 10.12625 | 30896 ft | 493 kts | 72° |
| 2026-05-04 20:36 | 55.19542 | 10.18393 | 29660 ft | 500 kts | 72° |
| 2026-05-04 20:36 | 55.20554 | 10.24139 | 28315 ft | 505 kts | 72° |
| 2026-05-04 20:36 | 55.21589 | 10.30035 | 27033 ft | 507 kts | 72° |
| 2026-05-04 20:37 | 55.22620 | 10.35933 | 25787 ft | 508 kts | 72° |
| 2026-05-04 20:37 | 55.23651 | 10.41858 | 24523 ft | 508 kts | 72° |
| 2026-05-04 20:37 | 55.24672 | 10.47747 | 23626 ft | 502 kts | 73° |
| 2026-05-04 20:37 | 55.25670 | 10.53552 | 22703 ft | 494 kts | 73° |
| 2026-05-04 20:38 | 55.26644 | 10.59254 | 21820 ft | 487 kts | 73° |
| 2026-05-04 20:38 | 55.27611 | 10.64938 | 20986 ft | 481 kts | 73° |
| 2026-05-04 20:38 | 55.28564 | 10.70532 | 20169 ft | 476 kts | 72° |
| 2026-05-04 20:38 | 55.29510 | 10.76056 | 19402 ft | 470 kts | 72° |
| 2026-05-04 20:39 | 55.30453 | 10.81544 | 19010 ft | 469 kts | 72° |
| 2026-05-04 20:39 | 55.31396 | 10.87034 | 18738 ft | 469 kts | 72° |
| 2026-05-04 20:39 | 55.32332 | 10.92515 | 18453 ft | 468 kts | 72° |
| 2026-05-04 20:39 | 55.33262 | 10.97989 | 18167 ft | 467 kts | 72° |
| 2026-05-04 20:40 | 55.34169 | 11.03367 | 17834 ft | 465 kts | 73° |
| 2026-05-04 20:40 | 55.35085 | 11.08867 | 17508 ft | 463 kts | 73° |
| 2026-05-04 20:40 | 55.35980 | 11.14300 | 17176 ft | 461 kts | 73° |
| 2026-05-04 20:40 | 55.36864 | 11.19702 | 16859 ft | 459 kts | 73° |
| 2026-05-04 20:41 | 55.37740 | 11.25049 | 16544 ft | 449 kts | 73° |
| 2026-05-04 20:41 | 55.38595 | 11.30260 | 16232 ft | 436 kts | 73° |
| 2026-05-04 20:41 | 55.39413 | 11.35250 | 15939 ft | 426 kts | 73° |
| 2026-05-04 20:41 | 55.40220 | 11.40190 | 15623 ft | 415 kts | 73° |
| 2026-05-04 20:42 | 55.41006 | 11.45019 | 15324 ft | 406 kts | 73° |
| 2026-05-04 20:42 | 55.41771 | 11.49745 | 15026 ft | 397 kts | 73° |
| 2026-05-04 20:42 | 55.42518 | 11.54365 | 14734 ft | 389 kts | 73° |
| 2026-05-04 20:42 | 55.43288 | 11.58874 | 14443 ft | 381 kts | 68° |
| 2026-05-04 20:43 | 55.44463 | 11.62977 | 14156 ft | 372 kts | 54° |
| 2026-05-04 20:43 | 55.46074 | 11.66442 | 13871 ft | 362 kts | 41° |
| 2026-05-04 20:43 | 55.47932 | 11.69385 | 13561 ft | 355 kts | 38° |
| 2026-05-04 20:43 | 55.49766 | 11.72253 | 13240 ft | 350 kts | 38° |
| 2026-05-04 20:44 | 55.51572 | 11.75081 | 12914 ft | 345 kts | 38° |
| 2026-05-04 20:44 | 55.53353 | 11.77878 | 12600 ft | 340 kts | 38° |
| 2026-05-04 20:44 | 55.55104 | 11.80631 | 12291 ft | 335 kts | 38° |
| 2026-05-04 20:44 | 55.56830 | 11.83344 | 12023 ft | 329 kts | 38° |
| 2026-05-04 20:45 | 55.58516 | 11.85997 | 11962 ft | 320 kts | 38° |
| 2026-05-04 20:45 | 55.60174 | 11.88605 | 11973 ft | 319 kts | 38° |
| 2026-05-04 20:45 | 55.61831 | 11.91221 | 11974 ft | 319 kts | 38° |
| 2026-05-04 20:45 | 55.63484 | 11.93834 | 11974 ft | 319 kts | 38° |
| 2026-05-04 20:46 | 55.65139 | 11.96448 | 11974 ft | 319 kts | 38° |
| 2026-05-04 20:46 | 55.66797 | 11.99070 | 11975 ft | 319 kts | 38° |
| 2026-05-04 20:46 | 55.67889 | 12.00798 | 11975 ft | 319 kts | 38° |
| 2026-05-04 20:46 | 55.69544 | 12.03424 | 11974 ft | 319 kts | 38° |
| 2026-05-04 20:47 | 55.71170 | 12.06104 | 11984 ft | 321 kts | 45° |
| 2026-05-04 20:47 | 55.72430 | 12.09383 | 11976 ft | 324 kts | 63° |
| 2026-05-04 20:47 | 55.73108 | 12.13189 | 11974 ft | 326 kts | 81° |
| 2026-05-04 20:47 | 55.73160 | 12.17193 | 11975 ft | 325 kts | 97° |
| 2026-05-04 20:48 | 55.72917 | 12.21166 | 11806 ft | 323 kts | 98° |
| 2026-05-04 20:48 | 55.72672 | 12.25103 | 11445 ft | 322 kts | 97° |
| 2026-05-04 20:48 | 55.72426 | 12.29034 | 11094 ft | 320 kts | 97° |
| 2026-05-04 20:48 | 55.72182 | 12.32954 | 10743 ft | 318 kts | 97° |
| 2026-05-04 20:49 | 55.71940 | 12.36846 | 10390 ft | 316 kts | 97° |
| 2026-05-04 20:49 | 55.71697 | 12.40721 | 10036 ft | 314 kts | 97° |
| 2026-05-04 20:49 | 55.71454 | 12.44551 | 9659 ft | 313 kts | 97° |
| 2026-05-04 20:49 | 55.71262 | 12.48383 | 9268 ft | 310 kts | 90° |
| 2026-05-04 20:50 | 55.71546 | 12.52144 | 8874 ft | 307 kts | 73° |
| 2026-05-04 20:50 | 55.72354 | 12.55628 | 8468 ft | 303 kts | 60° |
| 2026-05-04 20:50 | 55.73318 | 12.58964 | 7887 ft | 307 kts | 61° |
| 2026-05-04 20:50 | 55.74312 | 12.62377 | 7121 ft | 313 kts | 58° |
| 2026-05-04 20:51 | 55.75601 | 12.65415 | 6383 ft | 305 kts | 42° |
| 2026-05-04 20:51 | 55.77168 | 12.67908 | 5605 ft | 299 kts | 38° |
| 2026-05-04 20:51 | 55.78723 | 12.70324 | 4835 ft | 295 kts | 38° |
| 2026-05-04 20:51 | 55.80252 | 12.72680 | 4268 ft | 284 kts | 38° |
| 2026-05-04 20:52 | 55.81705 | 12.74947 | 3778 ft | 272 kts | 39° |
| 2026-05-04 20:52 | 55.83079 | 12.77128 | 3419 ft | 255 kts | 40° |
| 2026-05-04 20:52 | 55.84073 | 12.79589 | 3157 ft | 241 kts | 70° |
| 2026-05-04 20:52 | 55.84201 | 12.82465 | 2905 ft | 234 kts | 103° |
| 2026-05-04 20:53 | 55.83544 | 12.85053 | 2645 ft | 228 kts | 123° |
| 2026-05-04 20:53 | 55.82458 | 12.86997 | 2511 ft | 222 kts | 154° |
| 2026-05-04 20:53 | 55.81030 | 12.88019 | 2500 ft | 221 kts | 167° |
| 2026-05-04 20:53 | 55.79521 | 12.88404 | 2507 ft | 219 kts | 182° |
| 2026-05-04 20:54 | 55.77995 | 12.88353 | 2508 ft | 219 kts | 185° |
| 2026-05-04 20:54 | 55.76544 | 12.87957 | 2499 ft | 203 kts | 204° |
| 2026-05-04 20:54 | 55.75364 | 12.86741 | 2503 ft | 193 kts | 224° |
| 2026-05-04 20:54 | 55.74363 | 12.85177 | 2503 ft | 191 kts | 225° |
| 2026-05-04 20:55 | 55.73369 | 12.83619 | 2506 ft | 190 kts | 225° |
| 2026-05-04 20:55 | 55.72378 | 12.82070 | 2500 ft | 190 kts | 225° |
| 2026-05-04 20:55 | 55.71384 | 12.80517 | 2353 ft | 191 kts | 225° |
| 2026-05-04 20:55 | 55.70391 | 12.78968 | 2136 ft | 189 kts | 225° |
| 2026-05-04 20:56 | 55.69429 | 12.77471 | 1900 ft | 185 kts | 225° |
| 2026-05-04 20:56 | 55.68470 | 12.75977 | 1631 ft | 181 kts | 225° |
| 2026-05-04 20:56 | 55.67543 | 12.74535 | 1374 ft | 171 kts | 225° |
| 2026-05-04 20:56 | 55.66689 | 12.73209 | 1155 ft | 156 kts | 225° |
| 2026-05-04 20:57 | 55.65902 | 12.71983 | 932 ft | 147 kts | 225° |
| 2026-05-04 20:57 | 55.65148 | 12.70807 | 730 ft | 143 kts | 224° |
| 2026-05-04 20:57 | 55.64404 | 12.69643 | 547 ft | 142 kts | 224° |
| 2026-05-04 20:57 | 55.63665 | 12.68498 | 367 ft | 141 kts | 223° |
| 2026-05-04 20:58 | 55.62932 | 12.67352 | 171 ft | 140 kts | 223° |
| 2026-05-04 20:58 | 55.62204 | 12.66229 | 27 ft | 133 kts | 222° |
| 2026-05-04 20:58 | 55.61607 | 12.65308 | 22 ft | 90 kts | 221° |
| 2026-05-04 20:58 | 55.61313 | 12.64823 | 25 ft | 26 kts | 239° |
| 2026-05-04 20:59 | 55.61254 | 12.64596 | 24 ft | 18 kts | 250° |
| 2026-05-04 20:59 | 55.61218 | 12.64414 | 26 ft | 14 kts | 251° |
| 2026-05-04 20:59 | 55.61190 | 12.64249 | 26 ft | 12 kts | 265° |
| 2026-05-04 20:59 | 55.61215 | 12.64130 | 25 ft | 9 kts | 323° |
| 2026-05-04 21:00 | 55.61283 | 12.64122 | 24 ft | 14 kts | 18° |
| 2026-05-04 21:00 | 55.61363 | 12.64205 | 24 ft | 13 kts | 34° |
| 2026-05-04 21:00 | 55.61442 | 12.64298 | 26 ft | 16 kts | 33° |
| 2026-05-04 21:00 | 55.61533 | 12.64403 | 25 ft | 15 kts | 33° |
| 2026-05-04 21:01 | 55.61625 | 12.64508 | 26 ft | 17 kts | 33° |
| 2026-05-04 21:01 | 55.61738 | 12.64637 | 24 ft | 21 kts | 33° |
| 2026-05-04 21:01 | 55.61859 | 12.64775 | 24 ft | 19 kts | 33° |
| 2026-05-04 21:01 | 55.61970 | 12.64902 | 24 ft | 16 kts | 32° |
| 2026-05-04 21:02 | 55.62045 | 12.64988 | 24 ft | 12 kts | 33° |
| 2026-05-04 21:02 | 55.62110 | 12.65064 | 24 ft | 11 kts | 34° |
| 2026-05-04 21:02 | 55.62168 | 12.65134 | 24 ft | 10 kts | 33° |
| 2026-05-04 21:02 | 55.62242 | 12.65195 | 24 ft | 15 kts | 7° |
| 2026-05-04 21:03 | 55.62320 | 12.65203 | 26 ft | 11 kts | 2° |
| 2026-05-04 21:03 | 55.62396 | 12.65202 | 26 ft | 10 kts | 359° |
| 2026-05-04 21:03 | 55.62439 | 12.65282 | 24 ft | 10 kts | 83° |
| 2026-05-04 21:03 | 55.62441 | 12.65412 | 24 ft | 11 kts | 87° |
| 2026-05-04 21:04 | 55.62452 | 12.65512 | 25 ft | 6 kts | 57° |
| 2026-05-04 21:04 | 55.62472 | 12.65538 | 24 ft | 2 kts | 27° |
| 2026-05-04 21:04 | 55.62485 | 12.65547 | 24 ft | 2 kts | 21° |
| 2026-05-04 21:04 | 55.62500 | 12.65558 | 24 ft | 3 kts | 22° |
| 2026-05-04 21:05 | 55.62516 | 12.65570 | 24 ft | 2 kts | 23° |
| 2026-05-04 21:05 | 55.62522 | 12.65574 | 24 ft | 0 kts | 23° |